sensor_id;sensor_type;location;lat;lon;timestamp;pressure;altitude;pressure_sealevel;temperature;humidity
43878;BME280;29815;48.184;11.268;2023-11-18T00:02:18;96291.09;;;3.73;100.00
43878;BME280;29815;48.184;11.268;2023-11-18T00:04:48;96283.13;;;3.66;100.00
43878;BME280;29815;48.184;11.268;2023-11-18T00:07:17;96286.41;;;3.62;100.00
43878;BME280;29815;48.184;11.268;2023-11-18T00:09:46;96292.13;;;3.59;100.00
43878;BME280;29815;48.184;11.268;2023-11-18T00:12:17;96295.19;;;3.56;100.00
43878;BME280;29815;48.184;11.268;2023-11-18T00:14:46;96292.16;;;3.52;100.00
43878;BME280;29815;48.184;11.268;2023-11-18T00:17:16;96293.75;;;3.60;100.00
43878;BME280;29815;48.184;11.268;2023-11-18T00:19:45;96291.31;;;3.58;100.00
43878;BME280;29815;48.184;11.268;2023-11-18T00:22:15;96297.03;;;3.62;100.00
43878;BME280;29815;48.184;11.268;2023-11-18T00:24:44;96298.47;;;3.58;100.00
43878;BME280;29815;48.184;11.268;2023-11-18T00:27:14;96299.75;;;3.55;100.00
43878;BME280;29815;48.184;11.268;2023-11-18T00:29:45;96303.19;;;3.56;100.00
43878;BME280;29815;48.184;11.268;2023-11-18T00:32:14;96304.00;;;3.56;100.00
43878;BME280;29815;48.184;11.268;2023-11-18T00:34:44;96313.47;;;3.52;100.00
43878;BME280;29815;48.184;11.268;2023-11-18T00:37:14;96306.50;;;3.51;100.00
43878;BME280;29815;48.184;11.268;2023-11-18T00:39:43;96302.81;;;3.52;100.00
43878;BME280;29815;48.184;11.268;2023-11-18T00:42:13;96310.78;;;3.52;100.00
43878;BME280;29815;48.184;11.268;2023-11-18T00:44:44;96308.53;;;3.49;100.00
43878;BME280;29815;48.184;11.268;2023-11-18T00:47:14;96309.38;;;3.50;100.00
43878;BME280;29815;48.184;11.268;2023-11-18T00:49:43;96313.84;;;3.56;100.00
43878;BME280;29815;48.184;11.268;2023-11-18T00:52:13;96313.47;;;3.52;100.00
43878;BME280;29815;48.184;11.268;2023-11-18T00:54:43;96306.50;;;3.51;100.00
43878;BME280;29815;48.184;11.268;2023-11-18T00:57:18;96302.59;;;3.47;100.00
43878;BME280;29815;48.184;11.268;2023-11-18T00:59:49;96304.44;;;3.53;100.00
43878;BME280;29815;48.184;11.268;2023-11-18T01:02:18;96304.84;;;3.50;100.00
43878;BME280;29815;48.184;11.268;2023-11-18T01:04:47;96296.88;;;3.44;100.00
43878;BME280;29815;48.184;11.268;2023-11-18T01:07:17;96305.06;;;3.35;100.00
43878;BME280;29815;48.184;11.268;2023-11-18T01:09:46;96313.28;;;3.27;100.00
43878;BME280;29815;48.184;11.268;2023-11-18T01:12:17;96309.81;;;3.27;100.00
43878;BME280;29815;48.184;11.268;2023-11-18T01:14:46;96312.88;;;3.24;100.00
43878;BME280;29815;48.184;11.268;2023-11-18T01:17:17;96317.34;;;3.30;100.00
43878;BME280;29815;48.184;11.268;2023-11-18T01:19:46;96317.38;;;3.23;100.00
43878;BME280;29815;48.184;11.268;2023-11-18T01:22:16;96317.16;;;3.25;100.00
43878;BME280;29815;48.184;11.268;2023-11-18T01:24:46;96316.34;;;3.18;100.00
43878;BME280;29815;48.184;11.268;2023-11-18T01:27:15;96315.53;;;3.24;100.00
43878;BME280;29815;48.184;11.268;2023-11-18T01:29:46;96321.25;;;3.27;100.00
43878;BME280;29815;48.184;11.268;2023-11-18T01:32:17;96318.16;;;3.37;100.00
43878;BME280;29815;48.184;11.268;2023-11-18T01:34:47;96314.69;;;3.36;100.00
43878;BME280;29815;48.184;11.268;2023-11-18T01:37:18;96323.06;;;3.33;100.00
43878;BME280;29815;48.184;11.268;2023-11-18T01:39:49;96320.63;;;3.32;100.00
43878;BME280;29815;48.184;11.268;2023-11-18T01:42:19;96327.97;;;3.30;100.00
43878;BME280;29815;48.184;11.268;2023-11-18T01:44:48;96314.69;;;3.36;100.00
43878;BME280;29815;48.184;11.268;2023-11-18T01:47:19;96324.72;;;3.48;100.00
43878;BME280;29815;48.184;11.268;2023-11-18T01:49:49;96325.94;;;3.45;100.00
43878;BME280;29815;48.184;11.268;2023-11-18T01:52:18;96331.25;;;3.45;100.00
43878;BME280;29815;48.184;11.268;2023-11-18T01:54:49;96332.69;;;3.48;100.00
43878;BME280;29815;48.184;11.268;2023-11-18T01:57:18;96330.84;;;3.48;100.00
43878;BME280;29815;48.184;11.268;2023-11-18T01:59:48;96337.41;;;3.46;100.00
43878;BME280;29815;48.184;11.268;2023-11-18T02:02:17;96334.75;;;3.39;100.00
43878;BME280;29815;48.184;11.268;2023-11-18T02:04:49;96337.41;;;3.46;100.00
43878;BME280;29815;48.184;11.268;2023-11-18T02:07:19;96340.06;;;3.39;100.00
43878;BME280;29815;48.184;11.268;2023-11-18T02:09:48;96339.84;;;3.40;100.00
43878;BME280;29815;48.184;11.268;2023-11-18T02:12:23;96346.22;;;3.46;100.00
43878;BME280;29815;48.184;11.268;2023-11-18T02:14:55;96351.53;;;3.53;100.00
43878;BME280;29815;48.184;11.268;2023-11-18T02:17:29;96350.72;;;3.52;100.00
43878;BME280;29815;48.184;11.268;2023-11-18T02:19:59;96346.81;;;3.55;100.00
43878;BME280;29815;48.184;11.268;2023-11-18T02:22:34;96346.81;;;3.48;100.00
43878;BME280;29815;48.184;11.268;2023-11-18T02:25:04;96341.72;;;3.47;100.00
43878;BME280;29815;48.184;11.268;2023-11-18T02:27:39;96346.81;;;3.42;100.00
43878;BME280;29815;48.184;11.268;2023-11-18T02:30:09;96347.03;;;3.40;100.00
43878;BME280;29815;48.184;11.268;2023-11-18T02:32:43;96345.38;;;3.39;100.00
43878;BME280;29815;48.184;11.268;2023-11-18T02:35:23;96344.38;;;3.40;100.00
43878;BME280;29815;48.184;11.268;2023-11-18T02:37:55;96346.63;;;3.43;100.00
43878;BME280;29815;48.184;11.268;2023-11-18T02:40:28;96340.47;;;3.36;100.00
43878;BME280;29815;48.184;11.268;2023-11-18T02:43:02;96343.34;;;3.34;100.00
43878;BME280;29815;48.184;11.268;2023-11-18T02:45:34;96349.69;;;3.33;100.00
43878;BME280;29815;48.184;11.268;2023-11-18T02:48:05;96346.19;;;3.33;100.00
43878;BME280;29815;48.184;11.268;2023-11-18T02:50:35;96345.19;;;3.34;100.00
43878;BME280;29815;48.184;11.268;2023-11-18T02:53:05;96344.59;;;3.25;100.00
43878;BME280;29815;48.184;11.268;2023-11-18T02:55:37;96346.59;;;3.30;100.00
43878;BME280;29815;48.184;11.268;2023-11-18T02:58:10;96342.94;;;3.31;100.00
43878;BME280;29815;48.184;11.268;2023-11-18T03:00:40;96350.09;;;3.30;100.00
43878;BME280;29815;48.184;11.268;2023-11-18T03:03:09;96344.75;;;3.30;100.00
43878;BME280;29815;48.184;11.268;2023-11-18T03:05:38;96348.06;;;3.26;100.00
43878;BME280;29815;48.184;11.268;2023-11-18T03:08:08;96347.88;;;3.27;100.00
43878;BME280;29815;48.184;11.268;2023-11-18T03:10:37;96350.09;;;3.30;100.00
43878;BME280;29815;48.184;11.268;2023-11-18T03:13:07;96348.69;;;3.28;100.00
43878;BME280;29815;48.184;11.268;2023-11-18T03:15:37;96345.59;;;3.31;100.00
43878;BME280;29815;48.184;11.268;2023-11-18T03:18:08;96348.03;;;3.32;100.00
43878;BME280;29815;48.184;11.268;2023-11-18T03:20:40;96354.78;;;3.28;100.00
43878;BME280;29815;48.184;11.268;2023-11-18T03:23:09;96362.59;;;3.23;100.00
43878;BME280;29815;48.184;11.268;2023-11-18T03:25:39;96362.38;;;3.31;100.00
43878;BME280;29815;48.184;11.268;2023-11-18T03:28:08;96368.91;;;3.29;100.00
43878;BME280;29815;48.184;11.268;2023-11-18T03:30:39;96373.44;;;3.22;100.00
43878;BME280;29815;48.184;11.268;2023-11-18T03:33:10;96382.66;;;3.26;100.00
43878;BME280;29815;48.184;11.268;2023-11-18T03:35:39;96381.00;;;3.25;100.00
43878;BME280;29815;48.184;11.268;2023-11-18T03:38:09;96378.53;;;3.23;100.00
43878;BME280;29815;48.184;11.268;2023-11-18T03:40:38;96379.56;;;3.22;100.00
43878;BME280;29815;48.184;11.268;2023-11-18T03:43:09;96383.25;;;3.28;100.00
43878;BME280;29815;48.184;11.268;2023-11-18T03:45:40;96386.13;;;3.26;100.00
43878;BME280;29815;48.184;11.268;2023-11-18T03:48:10;96393.06;;;3.34;100.00
43878;BME280;29815;48.184;11.268;2023-11-18T03:50:42;96391.25;;;3.28;100.00
43878;BME280;29815;48.184;11.268;2023-11-18T03:53:12;96397.78;;;3.32;100.00
43878;BME280;29815;48.184;11.268;2023-11-18T03:55:41;96393.91;;;3.41;100.00
43878;BME280;29815;48.184;11.268;2023-11-18T03:58:10;96402.72;;;3.48;100.00
43878;BME280;29815;48.184;11.268;2023-11-18T04:00:41;96403.31;;;3.50;100.00
43878;BME280;29815;48.184;11.268;2023-11-18T04:03:11;96400.84;;;3.42;100.00
43878;BME280;29815;48.184;11.268;2023-11-18T04:05:40;96400.44;;;3.45;100.00
43878;BME280;29815;48.184;11.268;2023-11-18T04:08:09;96389.41;;;3.48;100.00
43878;BME280;29815;48.184;11.268;2023-11-18T04:10:39;96388.78;;;3.46;100.00
43878;BME280;29815;48.184;11.268;2023-11-18T04:13:09;96383.88;;;3.43;100.00
43878;BME280;29815;48.184;11.268;2023-11-18T04:15:38;96382.44;;;3.47;100.00
43878;BME280;29815;48.184;11.268;2023-11-18T04:18:09;96390.22;;;3.49;100.00
43878;BME280;29815;48.184;11.268;2023-11-18T04:20:38;96386.94;;;3.47;100.00
43878;BME280;29815;48.184;11.268;2023-11-18T04:23:08;96389.81;;;3.45;100.00
43878;BME280;29815;48.184;11.268;2023-11-18T04:25:39;96382.44;;;3.47;100.00
43878;BME280;29815;48.184;11.268;2023-11-18T04:28:09;96382.03;;;3.50;100.00
43878;BME280;29815;48.184;11.268;2023-11-18T04:30:38;96383.88;;;3.50;100.00
43878;BME280;29815;48.184;11.268;2023-11-18T04:33:09;96384.09;;;3.48;100.00
43878;BME280;29815;48.184;11.268;2023-11-18T04:35:38;96381.81;;;3.45;100.00
43878;BME280;29815;48.184;11.268;2023-11-18T04:38:08;96383.25;;;3.48;100.00
43878;BME280;29815;48.184;11.268;2023-11-18T04:40:37;96387.97;;;3.52;100.00
43878;BME280;29815;48.184;11.268;2023-11-18T04:43:09;96383.06;;;3.49;100.00
43878;BME280;29815;48.184;11.268;2023-11-18T04:45:38;96386.75;;;3.48;100.00
43878;BME280;29815;48.184;11.268;2023-11-18T04:48:09;96381.00;;;3.51;100.00
43878;BME280;29815;48.184;11.268;2023-11-18T04:50:39;96383.06;;;3.43;100.00
43878;BME280;29815;48.184;11.268;2023-11-18T04:53:08;96393.91;;;3.41;100.00
43878;BME280;29815;48.184;11.268;2023-11-18T04:55:38;96385.72;;;3.43;100.00
43878;BME280;29815;48.184;11.268;2023-11-18T04:58:08;96386.13;;;3.39;100.00
43878;BME280;29815;48.184;11.268;2023-11-18T05:00:37;96393.69;;;3.36;100.00
43878;BME280;29815;48.184;11.268;2023-11-18T05:03:09;96393.69;;;3.36;100.00
43878;BME280;29815;48.184;11.268;2023-11-18T05:05:38;96387.97;;;3.39;100.00
43878;BME280;29815;48.184;11.268;2023-11-18T05:08:17;96383.88;;;3.36;100.00
43878;BME280;29815;48.184;11.268;2023-11-18T05:10:48;96384.06;;;3.42;100.00
43878;BME280;29815;48.184;11.268;2023-11-18T05:13:18;96388.97;;;3.38;100.00
43878;BME280;29815;48.184;11.268;2023-11-18T05:15:47;96378.53;;;3.36;100.00
43878;BME280;29815;48.184;11.268;2023-11-18T05:18:19;96376.91;;;3.35;100.00
43878;BME280;29815;48.184;11.268;2023-11-18T05:20:49;96369.94;;;3.34;100.00
43878;BME280;29815;48.184;11.268;2023-11-18T05:23:18;96373.22;;;3.30;100.00
43878;BME280;29815;48.184;11.268;2023-11-18T05:25:48;96381.41;;;3.35;100.00
43878;BME280;29815;48.184;11.268;2023-11-18T05:28:17;96385.94;;;3.28;100.00
43878;BME280;29815;48.184;11.268;2023-11-18T05:30:47;96375.88;;;3.30;100.00
43878;BME280;29815;48.184;11.268;2023-11-18T05:33:19;96385.50;;;3.37;100.00
43878;BME280;29815;48.184;11.268;2023-11-18T05:35:49;96379.16;;;3.38;100.00
43878;BME280;29815;48.184;11.268;2023-11-18T05:38:19;96373.00;;;3.31;100.00
43878;BME280;29815;48.184;11.268;2023-11-18T05:40:50;96375.06;;;3.36;100.00
43878;BME280;29815;48.184;11.268;2023-11-18T05:43:25;96380.59;;;3.41;100.00
43878;BME280;29815;48.184;11.268;2023-11-18T05:45:57;96380.78;;;3.39;100.00
43878;BME280;29815;48.184;11.268;2023-11-18T05:48:53;96378.13;;;3.39;100.00
43878;BME280;29815;48.184;11.268;2023-11-18T05:51:24;96377.72;;;3.29;100.00
43878;BME280;29815;48.184;11.268;2023-11-18T05:53:54;96385.09;;;3.27;100.00
43878;BME280;29815;48.184;11.268;2023-11-18T05:56:24;96391.84;;;3.30;100.00
43878;BME280;29815;48.184;11.268;2023-11-18T05:58:54;96391.22;;;3.41;100.00
43878;BME280;29815;48.184;11.268;2023-11-18T06:01:23;96401.88;;;3.41;100.00
43878;BME280;29815;48.184;11.268;2023-11-18T06:03:56;96408.84;;;3.35;100.00
43878;BME280;29815;48.184;11.268;2023-11-18T06:06:27;96414.78;;;3.37;100.00
43878;BME280;29815;48.184;11.268;2023-11-18T06:08:56;96419.06;;;3.38;100.00
43878;BME280;29815;48.184;11.268;2023-11-18T06:11:27;96420.72;;;3.39;100.00
43878;BME280;29815;48.184;11.268;2023-11-18T06:13:59;96422.34;;;3.40;100.00
43878;BME280;29815;48.184;11.268;2023-11-18T06:16:29;96415.59;;;3.38;100.00
43878;BME280;29815;48.184;11.268;2023-11-18T06:18:59;96412.31;;;3.43;100.00
43878;BME280;29815;48.184;11.268;2023-11-18T06:21:32;96413.13;;;3.43;100.00
43878;BME280;29815;48.184;11.268;2023-11-18T06:24:02;96404.75;;;3.39;100.00
43878;BME280;29815;48.184;11.268;2023-11-18T06:26:33;96409.03;;;3.40;100.00
43878;BME280;29815;48.184;11.268;2023-11-18T06:29:04;96407.41;;;3.39;100.00
43878;BME280;29815;48.184;11.268;2023-11-18T06:31:34;96412.31;;;3.36;100.00
43878;BME280;29815;48.184;11.268;2023-11-18T06:34:04;96412.31;;;3.36;100.00
43878;BME280;29815;48.184;11.268;2023-11-18T06:36:34;96402.88;;;3.33;100.00
43878;BME280;29815;48.184;11.268;2023-11-18T06:39:03;96408.00;;;3.35;100.00
43878;BME280;29815;48.184;11.268;2023-11-18T06:41:35;96415.16;;;3.34;100.00
43878;BME280;29815;48.184;11.268;2023-11-18T06:44:08;96408.00;;;3.35;100.00
43878;BME280;29815;48.184;11.268;2023-11-18T06:46:40;96407.38;;;3.33;100.00
43878;BME280;29815;48.184;11.268;2023-11-18T06:49:11;96414.34;;;3.34;100.00
43878;BME280;29815;48.184;11.268;2023-11-18T06:51:43;96411.31;;;3.44;100.00
43878;BME280;29815;48.184;11.268;2023-11-18T06:54:12;96412.53;;;3.41;100.00
43878;BME280;29815;48.184;11.268;2023-11-18T06:56:43;96419.88;;;3.39;100.00
43878;BME280;29815;48.184;11.268;2023-11-18T06:59:13;96419.69;;;3.40;100.00
43878;BME280;29815;48.184;11.268;2023-11-18T07:01:44;96420.72;;;3.39;100.00
43878;BME280;29815;48.184;11.268;2023-11-18T07:04:15;96417.66;;;3.43;100.00
43878;BME280;29815;48.184;11.268;2023-11-18T07:06:44;96412.53;;;3.41;100.00
43878;BME280;29815;48.184;11.268;2023-11-18T07:09:13;96412.53;;;3.41;100.00
43878;BME280;29815;48.184;11.268;2023-11-18T07:11:46;96417.84;;;3.41;100.00
43878;BME280;29815;48.184;11.268;2023-11-18T07:14:16;96418.47;;;3.43;100.00
43878;BME280;29815;48.184;11.268;2023-11-18T07:16:46;96415.81;;;3.43;100.00
43878;BME280;29815;48.184;11.268;2023-11-18T07:19:17;96419.69;;;3.47;100.00
43878;BME280;29815;48.184;11.268;2023-11-18T07:21:49;96418.47;;;3.50;100.00
43878;BME280;29815;48.184;11.268;2023-11-18T07:24:19;96424.41;;;3.52;100.00
43878;BME280;29815;48.184;11.268;2023-11-18T07:26:49;96423.19;;;3.54;100.00
43878;BME280;29815;48.184;11.268;2023-11-18T07:29:19;96425.22;;;3.59;100.00
43878;BME280;29815;48.184;11.268;2023-11-18T07:31:48;96428.50;;;3.61;100.00
43878;BME280;29815;48.184;11.268;2023-11-18T07:34:19;96436.28;;;3.62;100.00
43878;BME280;29815;48.184;11.268;2023-11-18T07:36:49;96431.97;;;3.61;100.00
43878;BME280;29815;48.184;11.268;2023-11-18T07:39:20;96442.22;;;3.64;100.00
43878;BME280;29815;48.184;11.268;2023-11-18T07:41:55;96438.53;;;3.65;100.00
43878;BME280;29815;48.184;11.268;2023-11-18T07:44:29;96434.44;;;3.69;100.00
43878;BME280;29815;48.184;11.268;2023-11-18T07:47:00;96433.00;;;3.73;100.00
43878;BME280;29815;48.184;11.268;2023-11-18T07:49:31;96437.72;;;3.78;100.00
43878;BME280;29815;48.184;11.268;2023-11-18T07:52:00;96436.06;;;3.90;100.00
43878;BME280;29815;48.184;11.268;2023-11-18T07:54:30;96442.00;;;3.92;100.00
43878;BME280;29815;48.184;11.268;2023-11-18T07:56:59;96428.28;;;3.95;100.00
43878;BME280;29815;48.184;11.268;2023-11-18T07:59:28;96426.44;;;4.02;100.00
43878;BME280;29815;48.184;11.268;2023-11-18T08:01:57;96437.66;;;4.11;100.00
43878;BME280;29815;48.184;11.268;2023-11-18T08:04:33;96439.72;;;4.16;100.00
43878;BME280;29815;48.184;11.268;2023-11-18T08:07:03;96431.09;;;4.20;100.00
43878;BME280;29815;48.184;11.268;2023-11-18T08:09:33;96442.38;;;4.29;100.00
43878;BME280;29815;48.184;11.268;2023-11-18T08:12:02;96441.91;;;4.38;100.00
43878;BME280;29815;48.184;11.268;2023-11-18T08:14:33;96446.19;;;4.46;100.00
43878;BME280;29815;48.184;11.268;2023-11-18T08:17:03;96444.94;;;4.55;100.00
43878;BME280;29815;48.184;11.268;2023-11-18T08:19:34;96437.34;;;4.59;100.00
43878;BME280;29815;48.184;11.268;2023-11-18T08:22:04;96434.44;;;4.67;100.00
43878;BME280;29815;48.184;11.268;2023-11-18T08:24:33;96437.91;;;4.74;100.00
43878;BME280;29815;48.184;11.268;2023-11-18T08:27:04;96446.31;;;4.78;100.00
43878;BME280;29815;48.184;11.268;2023-11-18T08:29:34;96447.53;;;4.82;100.00
43878;BME280;29815;48.184;11.268;2023-11-18T08:32:04;96451.81;;;4.83;100.00
43878;BME280;29815;48.184;11.268;2023-11-18T08:34:36;96443.22;;;4.81;100.00
43878;BME280;29815;48.184;11.268;2023-11-18T08:37:06;96443.22;;;4.81;100.00
43878;BME280;29815;48.184;11.268;2023-11-18T08:39:37;96447.53;;;4.82;100.00
43878;BME280;29815;48.184;11.268;2023-11-18T08:42:06;96451.44;;;4.79;100.00
43878;BME280;29815;48.184;11.268;2023-11-18T08:44:36;96436.63;;;4.90;100.00
43878;BME280;29815;48.184;11.268;2023-11-18T08:47:07;96435.19;;;4.87;100.00
43878;BME280;29815;48.184;11.268;2023-11-18T08:49:38;96432.06;;;4.97;100.00
43878;BME280;29815;48.184;11.268;2023-11-18T08:52:08;96428.78;;;4.95;100.00
43878;BME280;29815;48.184;11.268;2023-11-18T08:54:40;96421.81;;;4.94;100.00
43878;BME280;29815;48.184;11.268;2023-11-18T08:57:30;96439.22;;;5.03;100.00
43878;BME280;29815;48.184;11.268;2023-11-18T09:00:16;96428.53;;;5.03;100.00
43878;BME280;29815;48.184;11.268;2023-11-18T09:03:07;96420.53;;;5.03;100.00
43878;BME280;29815;48.184;11.268;2023-11-18T09:05:38;96419.69;;;5.09;100.00
43878;BME280;29815;48.184;11.268;2023-11-18T09:08:10;96422.94;;;5.18;100.00
43878;BME280;29815;48.184;11.268;2023-11-18T09:10:40;96416.72;;;5.24;100.00
43878;BME280;29815;48.184;11.268;2023-11-18T09:13:11;96414.81;;;5.31;100.00
43878;BME280;29815;48.184;11.268;2023-11-18T09:15:40;96421.75;;;5.38;100.00
43878;BME280;29815;48.184;11.268;2023-11-18T09:18:10;96424.75;;;5.49;100.00
43878;BME280;29815;48.184;11.268;2023-11-18T09:20:41;96431.69;;;5.56;100.00
43878;BME280;29815;48.184;11.268;2023-11-18T09:23:10;96432.84;;;5.67;100.00
43878;BME280;29815;48.184;11.268;2023-11-18T09:25:41;96426.69;;;5.66;100.00
43878;BME280;29815;48.184;11.268;2023-11-18T09:28:14;96422.25;;;5.78;100.00
43878;BME280;29815;48.184;11.268;2023-11-18T09:30:45;96417.53;;;5.81;100.00
43878;BME280;29815;48.184;11.268;2023-11-18T09:33:18;96414.03;;;5.80;100.00
43878;BME280;29815;48.184;11.268;2023-11-18T09:35:58;96426.34;;;5.81;100.00
43878;BME280;29815;48.184;11.268;2023-11-18T09:38:28;96423.25;;;5.84;100.00
43878;BME280;29815;48.184;11.268;2023-11-18T09:40:59;96421.94;;;6.00;100.00
43878;BME280;29815;48.184;11.268;2023-11-18T09:43:31;96424.47;;;6.13;100.00
43878;BME280;29815;48.184;11.268;2023-11-18T09:46:05;96423.09;;;6.04;100.00
43878;BME280;29815;48.184;11.268;2023-11-18T09:48:44;96420.97;;;6.13;100.00
43878;BME280;29815;48.184;11.268;2023-11-18T09:51:21;96415.28;;;6.02;100.00
43878;BME280;29815;48.184;11.268;2023-11-18T09:53:52;96418.78;;;6.03;100.00
43878;BME280;29815;48.184;11.268;2023-11-18T09:56:27;96421.09;;;5.99;100.00
43878;BME280;29815;48.184;11.268;2023-11-18T09:59:10;96418.34;;;6.06;100.00
43878;BME280;29815;48.184;11.268;2023-11-18T10:01:46;96425.50;;;6.12;100.00
43878;BME280;29815;48.184;11.268;2023-11-18T10:04:22;96414.75;;;6.19;100.00
43878;BME280;29815;48.184;11.268;2023-11-18T10:06:57;96413.50;;;6.21;100.00
43878;BME280;29815;48.184;11.268;2023-11-18T10:09:26;96419.28;;;6.18;100.00
43878;BME280;29815;48.184;11.268;2023-11-18T10:11:57;96415.72;;;6.24;100.00
43878;BME280;29815;48.184;11.268;2023-11-18T10:14:33;96414.47;;;6.27;100.00
43878;BME280;29815;48.184;11.268;2023-11-18T10:17:07;96409.94;;;6.27;100.00
43878;BME280;29815;48.184;11.268;2023-11-18T10:19:54;96410.59;;;6.23;100.00
43878;BME280;29815;48.184;11.268;2023-11-18T10:22:27;96405.31;;;6.16;100.00
43878;BME280;29815;48.184;11.268;2023-11-18T10:24:57;96406.94;;;6.17;100.00
43878;BME280;29815;48.184;11.268;2023-11-18T10:27:29;96407.16;;;6.16;100.00
43878;BME280;29815;48.184;11.268;2023-11-18T10:30:02;96403.19;;;6.25;100.00
43878;BME280;29815;48.184;11.268;2023-11-18T10:32:33;96387.50;;;6.28;100.00
43878;BME280;29815;48.184;11.268;2023-11-18T10:35:04;96397.88;;;6.36;100.00
43878;BME280;29815;48.184;11.268;2023-11-18T10:37:37;96393.28;;;6.43;100.00
43878;BME280;29815;48.184;11.268;2023-11-18T10:40:12;96389.38;;;6.46;100.00
43878;BME280;29815;48.184;11.268;2023-11-18T10:42:44;96387.44;;;6.53;100.00
43878;BME280;29815;48.184;11.268;2023-11-18T10:45:23;96378.63;;;6.64;100.00
43878;BME280;29815;48.184;11.268;2023-11-18T10:47:54;96391.13;;;6.70;100.00
43878;BME280;29815;48.184;11.268;2023-11-18T10:50:25;96392.69;;;6.78;100.00
43878;BME280;29815;48.184;11.268;2023-11-18T10:53:01;96399.00;;;6.84;100.00
43878;BME280;29815;48.184;11.268;2023-11-18T10:55:36;96393.69;;;6.95;100.00
43878;BME280;29815;48.184;11.268;2023-11-18T10:58:06;96405.72;;;6.86;100.00
43878;BME280;29815;48.184;11.268;2023-11-18T11:00:48;96399.03;;;6.95;100.00
43878;BME280;29815;48.184;11.268;2023-11-18T11:03:19;96398.06;;;7.08;100.00
43878;BME280;29815;48.184;11.268;2023-11-18T11:05:52;96396.91;;;7.16;100.00
43878;BME280;29815;48.184;11.268;2023-11-18T11:08:23;96398.59;;;7.28;100.00
43878;BME280;29815;48.184;11.268;2023-11-18T11:11:08;96387.06;;;7.39;100.00
43878;BME280;29815;48.184;11.268;2023-11-18T11:13:44;96400.31;;;7.64;100.00
43878;BME280;29815;48.184;11.268;2023-11-18T11:16:19;96398.53;;;7.70;100.00
43878;BME280;29815;48.184;11.268;2023-11-18T11:18:52;96398.34;;;7.83;100.00
43878;BME280;29815;48.184;11.268;2023-11-18T11:21:25;96409.53;;;7.80;100.00
43878;BME280;29815;48.184;11.268;2023-11-18T11:24:02;96414.41;;;7.71;100.00
43878;BME280;29815;48.184;11.268;2023-11-18T11:26:35;96413.13;;;7.74;100.00
43878;BME280;29815;48.184;11.268;2023-11-18T11:29:25;96402.19;;;7.87;100.00
43878;BME280;29815;48.184;11.268;2023-11-18T11:32:02;96400.66;;;7.79;100.00
43878;BME280;29815;48.184;11.268;2023-11-18T11:34:40;96399.00;;;7.67;100.00
43878;BME280;29815;48.184;11.268;2023-11-18T11:37:25;96396.44;;;7.60;100.00
43878;BME280;29815;48.184;11.268;2023-11-18T11:39:56;96406.59;;;7.58;100.00
43878;BME280;29815;48.184;11.268;2023-11-18T11:42:26;96408.03;;;7.31;100.00
43878;BME280;29815;48.184;11.268;2023-11-18T11:44:56;96398.81;;;7.27;100.00
43878;BME280;29815;48.184;11.268;2023-11-18T11:47:26;96391.22;;;7.24;100.00
43878;BME280;29815;48.184;11.268;2023-11-18T11:50:07;96383.56;;;7.27;100.00
43878;BME280;29815;48.184;11.268;2023-11-18T11:52:48;96378.34;;;7.32;100.00
43878;BME280;29815;48.184;11.268;2023-11-18T11:55:29;96389.28;;;7.31;100.00
43878;BME280;29815;48.184;11.268;2023-11-18T11:58:04;96377.28;;;7.33;100.00
43878;BME280;29815;48.184;11.268;2023-11-18T12:00:34;96372.03;;;7.27;100.00
43878;BME280;29815;48.184;11.268;2023-11-18T12:03:03;96372.97;;;7.32;100.00
43878;BME280;29815;48.184;11.268;2023-11-18T12:05:46;96367.63;;;7.32;100.00
43878;BME280;29815;48.184;11.268;2023-11-18T12:08:16;96362.97;;;7.28;100.00
43878;BME280;29815;48.184;11.268;2023-11-18T12:10:53;96355.97;;;7.27;100.00
43878;BME280;29815;48.184;11.268;2023-11-18T12:13:24;96359.81;;;7.31;100.00
43878;BME280;29815;48.184;11.268;2023-11-18T12:15:55;96355.97;;;7.27;100.00
43878;BME280;29815;48.184;11.268;2023-11-18T12:18:26;96359.22;;;7.29;100.00
43878;BME280;29815;48.184;11.268;2023-11-18T12:20:55;96352.03;;;7.29;100.00
43878;BME280;29815;48.184;11.268;2023-11-18T12:23:25;96348.66;;;7.34;100.00
43878;BME280;29815;48.184;11.268;2023-11-18T12:25:56;96353.34;;;7.38;100.00
43878;BME280;29815;48.184;11.268;2023-11-18T12:28:27;96347.03;;;7.33;100.00
43878;BME280;29815;48.184;11.268;2023-11-18T12:30:59;96346.78;;;7.34;100.00
43878;BME280;29815;48.184;11.268;2023-11-18T12:34:00;96337.34;;;7.43;100.00
43878;BME280;29815;48.184;11.268;2023-11-18T12:36:44;96336.78;;;7.41;100.00
43878;BME280;29815;48.184;11.268;2023-11-18T12:43:01;96312.91;;;7.40;100.00
43878;BME280;29815;48.184;11.268;2023-11-18T12:45:43;96311.16;;;7.45;100.00
43878;BME280;29815;48.184;11.268;2023-11-18T12:48:14;96311.16;;;7.45;100.00
43878;BME280;29815;48.184;11.268;2023-11-18T12:50:44;96308.94;;;7.42;100.00
43878;BME280;29815;48.184;11.268;2023-11-18T12:53:14;96308.03;;;7.37;100.00
43878;BME280;29815;48.184;11.268;2023-11-18T12:55:46;96302.19;;;7.40;100.00
43878;BME280;29815;48.184;11.268;2023-11-18T12:58:18;96313.16;;;7.38;100.00
43878;BME280;29815;48.184;11.268;2023-11-18T13:00:47;96315.34;;;7.41;100.00
43878;BME280;29815;48.184;11.268;2023-11-18T13:03:18;96316.28;;;7.47;100.00
43878;BME280;29815;48.184;11.268;2023-11-18T13:05:49;96310.47;;;7.38;100.00
43878;BME280;29815;48.184;11.268;2023-11-18T13:08:20;96298.81;;;7.33;100.00
43878;BME280;29815;48.184;11.268;2023-11-18T13:10:50;96291.13;;;7.25;100.00
43878;BME280;29815;48.184;11.268;2023-11-18T13:13:22;96293.81;;;7.25;100.00
43878;BME280;29815;48.184;11.268;2023-11-18T13:15:51;96286.44;;;7.20;100.00
43878;BME280;29815;48.184;11.268;2023-11-18T13:18:20;96284.00;;;7.19;100.00